sensor_id;sensor_type;location;lat;lon;timestamp;temperature;humidity
23124;DHT22;11731;48.592;8.858;2023-03-19T00:02:14;12.50;95.60
23124;DHT22;11731;48.592;8.858;2023-03-19T00:04:42;12.70;95.80
23124;DHT22;11731;48.592;8.858;2023-03-19T00:07:10;12.60;96.10
23124;DHT22;11731;48.592;8.858;2023-03-19T00:09:37;12.50;95.90
23124;DHT22;11731;48.592;8.858;2023-03-19T00:12:05;12.40;96.60
23124;DHT22;11731;48.592;8.858;2023-03-19T00:14:32;12.40;96.90
23124;DHT22;11731;48.592;8.858;2023-03-19T00:16:59;12.30;97.20
23124;DHT22;11731;48.592;8.858;2023-03-19T00:19:26;12.50;97.00
23124;DHT22;11731;48.592;8.858;2023-03-19T00:21:58;12.70;96.40
23124;DHT22;11731;48.592;8.858;2023-03-19T00:24:25;12.80;95.90
23124;DHT22;11731;48.592;8.858;2023-03-19T00:26:53;12.90;95.80
23124;DHT22;11731;48.592;8.858;2023-03-19T00:29:20;12.80;95.90
23124;DHT22;11731;48.592;8.858;2023-03-19T00:31:47;12.70;96.10
23124;DHT22;11731;48.592;8.858;2023-03-19T00:34:15;12.60;96.60
23124;DHT22;11731;48.592;8.858;2023-03-19T00:36:44;12.80;96.50
23124;DHT22;11731;48.592;8.858;2023-03-19T00:39:14;12.80;96.40
23124;DHT22;11731;48.592;8.858;2023-03-19T00:41:41;12.70;96.70
23124;DHT22;11731;48.592;8.858;2023-03-19T00:44:17;12.70;96.80
23124;DHT22;11731;48.592;8.858;2023-03-19T00:46:45;12.30;97.10
23124;DHT22;11731;48.592;8.858;2023-03-19T00:49:12;12.10;97.40
23124;DHT22;11731;48.592;8.858;2023-03-19T00:51:39;11.70;98.50
23124;DHT22;11731;48.592;8.858;2023-03-19T00:54:43;11.60;99.10
23124;DHT22;11731;48.592;8.858;2023-03-19T00:57:10;11.90;98.60
23124;DHT22;11731;48.592;8.858;2023-03-19T00:59:48;12.20;98.20
23124;DHT22;11731;48.592;8.858;2023-03-19T01:02:15;12.00;99.10
23124;DHT22;11731;48.592;8.858;2023-03-19T01:04:42;12.10;99.40
23124;DHT22;11731;48.592;8.858;2023-03-19T01:07:09;11.70;99.90
23124;DHT22;11731;48.592;8.858;2023-03-19T01:09:37;11.10;99.90
23124;DHT22;11731;48.592;8.858;2023-03-19T01:12:06;10.70;99.90
23124;DHT22;11731;48.592;8.858;2023-03-19T01:14:33;10.70;99.90
23124;DHT22;11731;48.592;8.858;2023-03-19T01:17:00;11.00;99.90
23124;DHT22;11731;48.592;8.858;2023-03-19T01:19:28;11.40;99.90
23124;DHT22;11731;48.592;8.858;2023-03-19T01:21:55;11.40;99.90
23124;DHT22;11731;48.592;8.858;2023-03-19T01:24:22;11.40;99.90
23124;DHT22;11731;48.592;8.858;2023-03-19T01:26:51;11.60;99.90
23124;DHT22;11731;48.592;8.858;2023-03-19T01:29:18;11.90;99.90
23124;DHT22;11731;48.592;8.858;2023-03-19T01:31:45;12.10;99.90
23124;DHT22;11731;48.592;8.858;2023-03-19T01:34:11;12.00;99.90
23124;DHT22;11731;48.592;8.858;2023-03-19T01:36:38;11.40;99.90
23124;DHT22;11731;48.592;8.858;2023-03-19T01:39:05;11.10;99.90
23124;DHT22;11731;48.592;8.858;2023-03-19T01:41:32;11.00;99.90
23124;DHT22;11731;48.592;8.858;2023-03-19T01:44:01;10.90;99.90
23124;DHT22;11731;48.592;8.858;2023-03-19T01:46:30;10.60;99.90
23124;DHT22;11731;48.592;8.858;2023-03-19T01:48:59;11.00;99.90
23124;DHT22;11731;48.592;8.858;2023-03-19T01:51:30;11.40;99.90
23124;DHT22;11731;48.592;8.858;2023-03-19T01:54:00;11.70;99.90
23124;DHT22;11731;48.592;8.858;2023-03-19T01:56:30;11.80;99.90
23124;DHT22;11731;48.592;8.858;2023-03-19T01:59:07;12.00;99.90
23124;DHT22;11731;48.592;8.858;2023-03-19T02:01:40;11.70;99.90
23124;DHT22;11731;48.592;8.858;2023-03-19T02:04:09;11.40;99.90
23124;DHT22;11731;48.592;8.858;2023-03-19T02:07:04;11.60;99.90
23124;DHT22;11731;48.592;8.858;2023-03-19T02:09:32;11.80;99.90
23124;DHT22;11731;48.592;8.858;2023-03-19T02:12:35;11.90;99.90
23124;DHT22;11731;48.592;8.858;2023-03-19T02:14:54;12.00;99.90
23124;DHT22;11731;48.592;8.858;2023-03-19T02:17:21;12.20;99.90
23124;DHT22;11731;48.592;8.858;2023-03-19T02:19:50;12.10;99.90
23124;DHT22;11731;48.592;8.858;2023-03-19T02:22:22;12.10;99.90
23124;DHT22;11731;48.592;8.858;2023-03-19T02:24:57;12.20;99.90
23124;DHT22;11731;48.592;8.858;2023-03-19T02:27:32;12.20;99.90
23124;DHT22;11731;48.592;8.858;2023-03-19T02:29:59;12.30;99.90
23124;DHT22;11731;48.592;8.858;2023-03-19T02:32:25;12.20;99.90
23124;DHT22;11731;48.592;8.858;2023-03-19T02:34:52;11.90;99.90
23124;DHT22;11731;48.592;8.858;2023-03-19T02:37:23;11.90;99.90
23124;DHT22;11731;48.592;8.858;2023-03-19T02:39:55;11.90;99.90
23124;DHT22;11731;48.592;8.858;2023-03-19T02:42:28;11.90;99.90
23124;DHT22;11731;48.592;8.858;2023-03-19T02:44:57;12.10;99.90
23124;DHT22;11731;48.592;8.858;2023-03-19T02:47:25;12.10;99.90
23124;DHT22;11731;48.592;8.858;2023-03-19T02:50:00;12.30;99.90
23124;DHT22;11731;48.592;8.858;2023-03-19T02:52:26;12.20;99.90
23124;DHT22;11731;48.592;8.858;2023-03-19T02:54:53;12.10;99.90
23124;DHT22;11731;48.592;8.858;2023-03-19T02:57:21;12.20;99.90
23124;DHT22;11731;48.592;8.858;2023-03-19T02:59:48;12.00;99.90
23124;DHT22;11731;48.592;8.858;2023-03-19T03:02:16;11.60;99.90
23124;DHT22;11731;48.592;8.858;2023-03-19T03:04:43;11.30;99.90
23124;DHT22;11731;48.592;8.858;2023-03-19T03:07:11;11.40;99.90
23124;DHT22;11731;48.592;8.858;2023-03-19T03:09:38;11.20;99.90
23124;DHT22;11731;48.592;8.858;2023-03-19T03:12:05;11.20;99.90
23124;DHT22;11731;48.592;8.858;2023-03-19T03:14:32;11.30;99.90
23124;DHT22;11731;48.592;8.858;2023-03-19T03:17:03;11.10;99.90
23124;DHT22;11731;48.592;8.858;2023-03-19T03:19:34;11.10;99.90
23124;DHT22;11731;48.592;8.858;2023-03-19T03:22:01;11.10;99.90
23124;DHT22;11731;48.592;8.858;2023-03-19T03:24:28;11.30;99.90
23124;DHT22;11731;48.592;8.858;2023-03-19T03:26:57;11.30;99.90
23124;DHT22;11731;48.592;8.858;2023-03-19T03:29:24;11.40;99.90
23124;DHT22;11731;48.592;8.858;2023-03-19T03:31:51;11.50;99.90
23124;DHT22;11731;48.592;8.858;2023-03-19T03:34:21;11.40;99.90
23124;DHT22;11731;48.592;8.858;2023-03-19T03:36:49;11.50;99.90
23124;DHT22;11731;48.592;8.858;2023-03-19T03:39:16;11.70;99.90
23124;DHT22;11731;48.592;8.858;2023-03-19T03:41:43;11.80;99.90
23124;DHT22;11731;48.592;8.858;2023-03-19T03:44:11;11.80;99.90
23124;DHT22;11731;48.592;8.858;2023-03-19T03:46:38;11.90;99.90
23124;DHT22;11731;48.592;8.858;2023-03-19T03:49:05;12.00;99.90
23124;DHT22;11731;48.592;8.858;2023-03-19T03:51:33;12.10;99.90
23124;DHT22;11731;48.592;8.858;2023-03-19T03:54:04;12.10;99.90
23124;DHT22;11731;48.592;8.858;2023-03-19T03:56:31;12.00;99.90
23124;DHT22;11731;48.592;8.858;2023-03-19T03:58:59;12.00;99.90
23124;DHT22;11731;48.592;8.858;2023-03-19T04:01:26;11.80;99.90
23124;DHT22;11731;48.592;8.858;2023-03-19T04:03:55;11.40;99.90
23124;DHT22;11731;48.592;8.858;2023-03-19T04:06:23;11.00;99.90
23124;DHT22;11731;48.592;8.858;2023-03-19T04:08:50;10.60;99.90
23124;DHT22;11731;48.592;8.858;2023-03-19T04:11:19;10.40;99.90
23124;DHT22;11731;48.592;8.858;2023-03-19T04:13:46;10.30;99.90
23124;DHT22;11731;48.592;8.858;2023-03-19T04:16:14;10.40;99.90
23124;DHT22;11731;48.592;8.858;2023-03-19T04:18:41;10.70;99.90
23124;DHT22;11731;48.592;8.858;2023-03-19T04:21:08;11.20;99.90
23124;DHT22;11731;48.592;8.858;2023-03-19T04:23:35;11.50;99.90
23124;DHT22;11731;48.592;8.858;2023-03-19T04:26:03;11.60;99.90
23124;DHT22;11731;48.592;8.858;2023-03-19T04:28:32;11.70;99.90
23124;DHT22;11731;48.592;8.858;2023-03-19T04:31:00;11.80;99.90
23124;DHT22;11731;48.592;8.858;2023-03-19T04:33:27;11.90;99.90
23124;DHT22;11731;48.592;8.858;2023-03-19T04:35:55;12.00;99.90
23124;DHT22;11731;48.592;8.858;2023-03-19T04:38:30;11.80;99.90
23124;DHT22;11731;48.592;8.858;2023-03-19T04:40:57;11.20;99.90
23124;DHT22;11731;48.592;8.858;2023-03-19T04:43:24;10.90;99.90
23124;DHT22;11731;48.592;8.858;2023-03-19T04:45:53;10.90;99.90
23124;DHT22;11731;48.592;8.858;2023-03-19T04:48:34;10.90;99.90
23124;DHT22;11731;48.592;8.858;2023-03-19T04:51:03;11.00;99.90
23124;DHT22;11731;48.592;8.858;2023-03-19T04:54:24;11.20;99.90
23124;DHT22;11731;48.592;8.858;2023-03-19T04:56:46;11.30;99.90
23124;DHT22;11731;48.592;8.858;2023-03-19T04:59:13;11.30;99.90
23124;DHT22;11731;48.592;8.858;2023-03-19T05:01:42;11.20;99.90
23124;DHT22;11731;48.592;8.858;2023-03-19T05:04:09;11.30;99.90
23124;DHT22;11731;48.592;8.858;2023-03-19T05:06:36;11.50;99.90
23124;DHT22;11731;48.592;8.858;2023-03-19T05:09:03;11.70;99.90
23124;DHT22;11731;48.592;8.858;2023-03-19T05:11:31;11.80;99.90
23124;DHT22;11731;48.592;8.858;2023-03-19T05:13:58;11.80;99.90
23124;DHT22;11731;48.592;8.858;2023-03-19T05:16:25;12.00;99.90
23124;DHT22;11731;48.592;8.858;2023-03-19T05:18:53;11.80;99.90
23124;DHT22;11731;48.592;8.858;2023-03-19T05:21:20;11.70;99.90
23124;DHT22;11731;48.592;8.858;2023-03-19T05:23:47;11.40;99.90
23124;DHT22;11731;48.592;8.858;2023-03-19T05:26:17;11.30;99.90
23124;DHT22;11731;48.592;8.858;2023-03-19T05:28:44;11.40;99.90
23124;DHT22;11731;48.592;8.858;2023-03-19T05:31:11;11.50;99.90
23124;DHT22;11731;48.592;8.858;2023-03-19T05:33:38;11.40;99.90
23124;DHT22;11731;48.592;8.858;2023-03-19T05:36:06;11.40;99.90
23124;DHT22;11731;48.592;8.858;2023-03-19T05:38:33;11.40;99.90
23124;DHT22;11731;48.592;8.858;2023-03-19T05:41:05;11.60;99.90
23124;DHT22;11731;48.592;8.858;2023-03-19T05:43:46;11.80;99.90
23124;DHT22;11731;48.592;8.858;2023-03-19T05:46:13;12.00;99.90
23124;DHT22;11731;48.592;8.858;2023-03-19T05:48:40;12.10;99.90
23124;DHT22;11731;48.592;8.858;2023-03-19T05:51:09;12.10;99.90
23124;DHT22;11731;48.592;8.858;2023-03-19T05:53:37;11.80;99.90
23124;DHT22;11731;48.592;8.858;2023-03-19T05:56:04;11.70;99.90
23124;DHT22;11731;48.592;8.858;2023-03-19T05:58:31;11.80;99.90
23124;DHT22;11731;48.592;8.858;2023-03-19T06:00:58;11.80;99.90
23124;DHT22;11731;48.592;8.858;2023-03-19T06:03:26;11.70;99.90
23124;DHT22;11731;48.592;8.858;2023-03-19T06:05:53;11.80;99.90
23124;DHT22;11731;48.592;8.858;2023-03-19T06:08:22;11.70;99.90
23124;DHT22;11731;48.592;8.858;2023-03-19T06:10:49;11.50;99.90
23124;DHT22;11731;48.592;8.858;2023-03-19T06:13:18;11.60;99.90
23124;DHT22;11731;48.592;8.858;2023-03-19T06:15:47;11.70;99.90
23124;DHT22;11731;48.592;8.858;2023-03-19T06:18:15;11.70;99.90
23124;DHT22;11731;48.592;8.858;2023-03-19T06:20:42;11.70;99.90
23124;DHT22;11731;48.592;8.858;2023-03-19T06:23:09;11.50;99.90
23124;DHT22;11731;48.592;8.858;2023-03-19T06:25:37;11.40;99.90
23124;DHT22;11731;48.592;8.858;2023-03-19T06:28:04;11.30;99.90
23124;DHT22;11731;48.592;8.858;2023-03-19T06:30:32;11.40;99.90
23124;DHT22;11731;48.592;8.858;2023-03-19T06:33:09;11.50;99.90
23124;DHT22;11731;48.592;8.858;2023-03-19T06:35:36;11.60;99.90
23124;DHT22;11731;48.592;8.858;2023-03-19T06:38:03;11.50;99.90
23124;DHT22;11731;48.592;8.858;2023-03-19T06:40:30;11.40;99.90
23124;DHT22;11731;48.592;8.858;2023-03-19T06:42:59;11.40;99.90
23124;DHT22;11731;48.592;8.858;2023-03-19T06:45:26;11.40;99.90
23124;DHT22;11731;48.592;8.858;2023-03-19T06:47:53;11.30;99.90
23124;DHT22;11731;48.592;8.858;2023-03-19T06:50:20;11.10;99.90
23124;DHT22;11731;48.592;8.858;2023-03-19T06:52:47;11.00;99.90
23124;DHT22;11731;48.592;8.858;2023-03-19T06:55:14;11.10;99.90
23124;DHT22;11731;48.592;8.858;2023-03-19T06:57:42;11.10;99.90
23124;DHT22;11731;48.592;8.858;2023-03-19T07:00:11;11.10;99.90
23124;DHT22;11731;48.592;8.858;2023-03-19T07:02:39;11.10;99.90
23124;DHT22;11731;48.592;8.858;2023-03-19T07:05:06;11.10;99.90
23124;DHT22;11731;48.592;8.858;2023-03-19T07:07:33;11.20;99.90
23124;DHT22;11731;48.592;8.858;2023-03-19T07:10:01;11.30;99.90
23124;DHT22;11731;48.592;8.858;2023-03-19T07:12:35;11.40;99.90
23124;DHT22;11731;48.592;8.858;2023-03-19T07:15:02;11.60;99.90
23124;DHT22;11731;48.592;8.858;2023-03-19T07:17:31;11.80;99.90
23124;DHT22;11731;48.592;8.858;2023-03-19T07:19:58;11.90;99.90
23124;DHT22;11731;48.592;8.858;2023-03-19T07:22:25;12.00;99.90
23124;DHT22;11731;48.592;8.858;2023-03-19T07:24:58;12.40;99.90
23124;DHT22;11731;48.592;8.858;2023-03-19T07:27:24;12.60;99.90
23124;DHT22;11731;48.592;8.858;2023-03-19T07:29:52;12.80;99.90
23124;DHT22;11731;48.592;8.858;2023-03-19T07:32:20;12.80;99.90
23124;DHT22;11731;48.592;8.858;2023-03-19T07:34:49;12.60;99.90
23124;DHT22;11731;48.592;8.858;2023-03-19T07:37:16;12.30;99.90
23124;DHT22;11731;48.592;8.858;2023-03-19T07:39:43;12.50;99.90
23124;DHT22;11731;48.592;8.858;2023-03-19T07:42:10;12.70;99.90
23124;DHT22;11731;48.592;8.858;2023-03-19T07:44:37;12.80;99.90
23124;DHT22;11731;48.592;8.858;2023-03-19T07:47:04;13.00;99.90
23124;DHT22;11731;48.592;8.858;2023-03-19T07:49:31;13.20;99.90
23124;DHT22;11731;48.592;8.858;2023-03-19T07:52:00;13.40;99.90
23124;DHT22;11731;48.592;8.858;2023-03-19T07:54:26;13.70;99.90
23124;DHT22;11731;48.592;8.858;2023-03-19T07:56:53;14.00;99.90
23124;DHT22;11731;48.592;8.858;2023-03-19T07:59:21;13.90;99.90
23124;DHT22;11731;48.592;8.858;2023-03-19T08:01:48;14.20;99.90
23124;DHT22;11731;48.592;8.858;2023-03-19T08:04:15;14.10;99.90
23124;DHT22;11731;48.592;8.858;2023-03-19T08:06:42;14.40;99.90
23124;DHT22;11731;48.592;8.858;2023-03-19T08:09:10;14.50;99.90
23124;DHT22;11731;48.592;8.858;2023-03-19T08:11:37;14.50;99.90
23124;DHT22;11731;48.592;8.858;2023-03-19T08:14:05;14.50;99.90
23124;DHT22;11731;48.592;8.858;2023-03-19T08:16:31;14.40;99.90
23124;DHT22;11731;48.592;8.858;2023-03-19T08:18:58;14.60;99.90
23124;DHT22;11731;48.592;8.858;2023-03-19T08:21:26;14.60;99.90
23124;DHT22;11731;48.592;8.858;2023-03-19T08:23:54;14.60;99.90
23124;DHT22;11731;48.592;8.858;2023-03-19T08:26:25;14.70;99.90
23124;DHT22;11731;48.592;8.858;2023-03-19T08:28:53;14.70;99.90
23124;DHT22;11731;48.592;8.858;2023-03-19T08:31:20;14.90;99.90
23124;DHT22;11731;48.592;8.858;2023-03-19T08:33:47;14.90;99.90
23124;DHT22;11731;48.592;8.858;2023-03-19T08:36:14;15.00;99.90
23124;DHT22;11731;48.592;8.858;2023-03-19T08:38:41;15.50;99.90
23124;DHT22;11731;48.592;8.858;2023-03-19T08:41:09;15.50;99.90
23124;DHT22;11731;48.592;8.858;2023-03-19T08:43:37;15.30;99.90
23124;DHT22;11731;48.592;8.858;2023-03-19T08:46:05;15.10;99.90
23124;DHT22;11731;48.592;8.858;2023-03-19T08:48:32;15.10;99.90
23124;DHT22;11731;48.592;8.858;2023-03-19T08:51:04;15.10;99.90
23124;DHT22;11731;48.592;8.858;2023-03-19T08:53:34;15.10;99.90
23124;DHT22;11731;48.592;8.858;2023-03-19T08:56:04;15.30;99.90
23124;DHT22;11731;48.592;8.858;2023-03-19T08:58:32;15.20;99.90
23124;DHT22;11731;48.592;8.858;2023-03-19T09:01:06;15.50;99.90
23124;DHT22;11731;48.592;8.858;2023-03-19T09:03:35;15.70;99.90
23124;DHT22;11731;48.592;8.858;2023-03-19T09:06:03;15.90;99.90
23124;DHT22;11731;48.592;8.858;2023-03-19T09:08:31;15.80;99.90
23124;DHT22;11731;48.592;8.858;2023-03-19T09:10:58;15.50;99.90
23124;DHT22;11731;48.592;8.858;2023-03-19T09:13:26;15.70;99.90
23124;DHT22;11731;48.592;8.858;2023-03-19T09:15:53;15.90;99.90
23124;DHT22;11731;48.592;8.858;2023-03-19T09:18:21;16.10;99.90
23124;DHT22;11731;48.592;8.858;2023-03-19T09:20:50;16.30;99.90
23124;DHT22;11731;48.592;8.858;2023-03-19T09:23:20;16.60;99.90
23124;DHT22;11731;48.592;8.858;2023-03-19T09:25:48;16.30;99.60
23124;DHT22;11731;48.592;8.858;2023-03-19T09:28:31;16.30;99.40
23124;DHT22;11731;48.592;8.858;2023-03-19T09:30:58;16.30;99.90
23124;DHT22;11731;48.592;8.858;2023-03-19T09:33:32;16.30;99.90
23124;DHT22;11731;48.592;8.858;2023-03-19T09:35:59;15.90;99.60
23124;DHT22;11731;48.592;8.858;2023-03-19T09:38:27;15.20;99.80
23124;DHT22;11731;48.592;8.858;2023-03-19T09:41:06;14.70;99.90
23124;DHT22;11731;48.592;8.858;2023-03-19T09:43:45;14.20;99.90
23124;DHT22;11731;48.592;8.858;2023-03-19T09:46:22;14.30;99.90
23124;DHT22;11731;48.592;8.858;2023-03-19T09:51:43;14.70;99.90
23124;DHT22;11731;48.592;8.858;2023-03-19T09:54:28;15.20;99.90
23124;DHT22;11731;48.592;8.858;2023-03-19T09:57:02;15.60;99.90
23124;DHT22;11731;48.592;8.858;2023-03-19T09:59:42;15.20;99.50
23124;DHT22;11731;48.592;8.858;2023-03-19T10:02:27;14.90;99.60
23124;DHT22;11731;48.592;8.858;2023-03-19T10:05:08;14.70;99.90
23124;DHT22;11731;48.592;8.858;2023-03-19T10:07:52;14.80;99.90
23124;DHT22;11731;48.592;8.858;2023-03-19T10:10:33;14.90;99.90
23124;DHT22;11731;48.592;8.858;2023-03-19T10:13:10;15.10;99.20
23124;DHT22;11731;48.592;8.858;2023-03-19T10:15:42;15.30;99.30
23124;DHT22;11731;48.592;8.858;2023-03-19T10:18:15;15.30;98.90
23124;DHT22;11731;48.592;8.858;2023-03-19T10:20:48;15.00;97.20
23124;DHT22;11731;48.592;8.858;2023-03-19T10:23:35;15.00;96.60
23124;DHT22;11731;48.592;8.858;2023-03-19T10:26:05;15.30;95.70
23124;DHT22;11731;48.592;8.858;2023-03-19T10:28:35;15.20;95.90
23124;DHT22;11731;48.592;8.858;2023-03-19T10:31:16;15.40;95.90
23124;DHT22;11731;48.592;8.858;2023-03-19T10:33:51;15.60;95.80
23124;DHT22;11731;48.592;8.858;2023-03-19T10:36:24;15.70;95.70
23124;DHT22;11731;48.592;8.858;2023-03-19T10:38:52;15.80;95.90
23124;DHT22;11731;48.592;8.858;2023-03-19T10:41:48;16.10;94.50
23124;DHT22;11731;48.592;8.858;2023-03-19T10:44:27;16.40;95.40
23124;DHT22;11731;48.592;8.858;2023-03-19T10:47:11;16.50;94.20
23124;DHT22;11731;48.592;8.858;2023-03-19T10:49:38;16.70;94.20
23124;DHT22;11731;48.592;8.858;2023-03-19T10:52:19;16.30;93.90
23124;DHT22;11731;48.592;8.858;2023-03-19T10:54:47;15.70;95.10
23124;DHT22;11731;48.592;8.858;2023-03-19T10:57:24;15.60;95.80
23124;DHT22;11731;48.592;8.858;2023-03-19T10:59:51;15.60;95.70
23124;DHT22;11731;48.592;8.858;2023-03-19T11:02:20;15.90;95.00
23124;DHT22;11731;48.592;8.858;2023-03-19T11:04:48;16.10;95.10
23124;DHT22;11731;48.592;8.858;2023-03-19T11:07:19;16.30;94.70
23124;DHT22;11731;48.592;8.858;2023-03-19T11:10:33;16.70;95.40
23124;DHT22;11731;48.592;8.858;2023-03-19T11:12:51;17.20;94.20
23124;DHT22;11731;48.592;8.858;2023-03-19T11:15:20;17.40;94.20
23124;DHT22;11731;48.592;8.858;2023-03-19T11:17:48;17.60;93.80
23124;DHT22;11731;48.592;8.858;2023-03-19T11:20:22;17.70;93.80
23124;DHT22;11731;48.592;8.858;2023-03-19T11:22:51;18.20;93.70
23124;DHT22;11731;48.592;8.858;2023-03-19T11:25:26;18.10;92.80
23124;DHT22;11731;48.592;8.858;2023-03-19T11:27:58;18.30;93.20
23124;DHT22;11731;48.592;8.858;2023-03-19T11:30:31;17.90;93.10
23124;DHT22;11731;48.592;8.858;2023-03-19T11:33:15;18.30;93.10
23124;DHT22;11731;48.592;8.858;2023-03-19T11:35:49;18.00;92.30
23124;DHT22;11731;48.592;8.858;2023-03-19T11:38:22;17.90;92.20
23124;DHT22;11731;48.592;8.858;2023-03-19T11:40:59;17.60;92.90
23124;DHT22;11731;48.592;8.858;2023-03-19T11:43:45;17.30;92.90
23124;DHT22;11731;48.592;8.858;2023-03-19T11:46:22;17.50;93.10
23124;DHT22;11731;48.592;8.858;2023-03-19T11:51:51;17.80;92.70
23124;DHT22;11731;48.592;8.858;2023-03-19T11:54:30;17.80;92.70
23124;DHT22;11731;48.592;8.858;2023-03-19T11:57:01;17.30;92.90
23124;DHT22;11731;48.592;8.858;2023-03-19T12:00:02;17.10;93.40
23124;DHT22;11731;48.592;8.858;2023-03-19T12:05:48;17.90;92.60
23124;DHT22;11731;48.592;8.858;2023-03-19T12:08:30;18.00;92.20
23124;DHT22;11731;48.592;8.858;2023-03-19T12:11:10;17.80;92.00
23124;DHT22;11731;48.592;8.858;2023-03-19T12:13:52;17.60;92.10
23124;DHT22;11731;48.592;8.858;2023-03-19T12:16:27;17.30;92.60
23124;DHT22;11731;48.592;8.858;2023-03-19T12:19:45;17.20;93.10
23124;DHT22;11731;48.592;8.858;2023-03-19T12:22:22;17.00;93.20
23124;DHT22;11731;48.592;8.858;2023-03-19T12:25:02;16.90;93.40
23124;DHT22;11731;48.592;8.858;2023-03-19T12:27:39;17.00;92.80
23124;DHT22;11731;48.592;8.858;2023-03-19T12:30:19;16.60;93.30
23124;DHT22;11731;48.592;8.858;2023-03-19T12:33:06;16.70;93.80
23124;DHT22;11731;48.592;8.858;2023-03-19T12:35:37;17.00;93.30
23124;DHT22;11731;48.592;8.858;2023-03-19T12:38:10;17.00;93.50
23124;DHT22;11731;48.592;8.858;2023-03-19T12:40:42;16.90;93.10
23124;DHT22;11731;48.592;8.858;2023-03-19T12:43:17;17.20;93.20
23124;DHT22;11731;48.592;8.858;2023-03-19T12:45:45;17.10;92.80
23124;DHT22;11731;48.592;8.858;2023-03-19T12:48:18;17.20;92.90
23124;DHT22;11731;48.592;8.858;2023-03-19T12:50:49;16.90;92.40
23124;DHT22;11731;48.592;8.858;2023-03-19T12:53:34;16.70;92.50
23124;DHT22;11731;48.592;8.858;2023-03-19T12:56:07;16.50;92.90
23124;DHT22;11731;48.592;8.858;2023-03-19T12:58:47;16.60;92.50
23124;DHT22;11731;48.592;8.858;2023-03-19T13:01:35;16.90;92.90
23124;DHT22;11731;48.592;8.858;2023-03-19T13:04:09;17.30;93.10
23124;DHT22;11731;48.592;8.858;2023-03-19T13:06:41;17.60;92.10
23124;DHT22;11731;48.592;8.858;2023-03-19T13:09:17;17.60;92.80
23124;DHT22;11731;48.592;8.858;2023-03-19T13:11:56;17.20;92.20
23124;DHT22;11731;48.592;8.858;2023-03-19T13:14:33;17.10;92.60
23124;DHT22;11731;48.592;8.858;2023-03-19T13:17:08;17.00;93.60
23124;DHT22;11731;48.592;8.858;2023-03-19T13:19:52;17.20;93.20
23124;DHT22;11731;48.592;8.858;2023-03-19T13:22:22;17.10;92.80
23124;DHT22;11731;48.592;8.858;2023-03-19T13:24:51;16.80;93.20
23124;DHT22;11731;48.592;8.858;2023-03-19T13:27:22;16.70;93.70
23124;DHT22;11731;48.592;8.858;2023-03-19T13:30:06;16.70;93.10
23124;DHT22;11731;48.592;8.858;2023-03-19T13:32:38;16.80;93.50
23124;DHT22;11731;48.592;8.858;2023-03-19T13:35:27;16.50;94.20
23124;DHT22;11731;48.592;8.858;2023-03-19T13:38:00;16.80;93.50
23124;DHT22;11731;48.592;8.858;2023-03-19T13:40:45;16.90;93.40
23124;DHT22;11731;48.592;8.858;2023-03-19T13:43:39;16.60;93.50
23124;DHT22;11731;48.592;8.858;2023-03-19T13:46:35;16.60;93.80
23124;DHT22;11731;48.592;8.858;2023-03-19T13:49:26;16.40;93.60
23124;DHT22;11731;48.592;8.858;2023-03-19T13:52:39;16.40;94.20
23124;DHT22;11731;48.592;8.858;2023-03-19T13:55:44;16.40;94.10
23124;DHT22;11731;48.592;8.858;2023-03-19T13:58:19;16.50;94.20
23124;DHT22;11731;48.592;8.858;2023-03-19T14:01:07;16.60;93.90
23124;DHT22;11731;48.592;8.858;2023-03-19T14:03:54;16.70;94.20
23124;DHT22;11731;48.592;8.858;2023-03-19T14:06:33;16.90;93.50
23124;DHT22;11731;48.592;8.858;2023-03-19T14:09:01;16.80;93.30
23124;DHT22;11731;48.592;8.858;2023-03-19T14:11:35;16.90;93.60
23124;DHT22;11731;48.592;8.858;2023-03-19T14:14:27;17.10;93.70
23124;DHT22;11731;48.592;8.858;2023-03-19T14:17:23;17.00;93.30
23124;DHT22;11731;48.592;8.858;2023-03-19T14:19:59;16.80;93.70
23124;DHT22;11731;48.592;8.858;2023-03-19T14:22:36;16.70;93.40
23124;DHT22;11731;48.592;8.858;2023-03-19T14:25:50;16.50;93.90
23124;DHT22;11731;48.592;8.858;2023-03-19T14:31:54;16.30;94.50
23124;DHT22;11731;48.592;8.858;2023-03-19T14:35:11;16.20;94.30
23124;DHT22;11731;48.592;8.858;2023-03-19T14:38:02;15.80;94.90
23124;DHT22;11731;48.592;8.858;2023-03-19T14:47:20;16.40;95.00
23124;DHT22;11731;48.592;8.858;2023-03-19T14:53:24;16.80;94.20
23124;DHT22;11731;48.592;8.858;2023-03-19T14:55:53;16.50;94.60
23124;DHT22;11731;48.592;8.858;2023-03-19T14:58:21;16.20;94.40
23124;DHT22;11731;48.592;8.858;2023-03-19T15:00:50;16.00;94.30
23124;DHT22;11731;48.592;8.858;2023-03-19T15:03:20;16.20;95.10
23124;DHT22;11731;48.592;8.858;2023-03-19T15:05:48;16.60;94.70
23124;DHT22;11731;48.592;8.858;2023-03-19T15:08:22;16.80;94.30
23124;DHT22;11731;48.592;8.858;2023-03-19T15:10:59;16.50;93.30
23124;DHT22;11731;48.592;8.858;2023-03-19T15:13:43;16.60;94.30
23124;DHT22;11731;48.592;8.858;2023-03-19T15:16:21;16.60;93.50
23124;DHT22;11731;48.592;8.858;2023-03-19T15:19:00;16.40;94.00
23124;DHT22;11731;48.592;8.858;2023-03-19T15:21:31;16.50;93.90
23124;DHT22;11731;48.592;8.858;2023-03-19T15:24:00;16.50;93.50
23124;DHT22;11731;48.592;8.858;2023-03-19T15:27:24;16.40;94.00
23124;DHT22;11731;48.592;8.858;2023-03-19T15:32:56;16.40;93.80
23124;DHT22;11731;48.592;8.858;2023-03-19T15:35:53;16.70;93.20
23124;DHT22;11731;48.592;8.858;2023-03-19T15:38:21;16.60;93.60
23124;DHT22;11731;48.592;8.858;2023-03-19T15:40:50;16.60;93.60
23124;DHT22;11731;48.592;8.858;2023-03-19T15:43:18;16.60;93.10
23124;DHT22;11731;48.592;8.858;2023-03-19T15:45:48;16.60;93.00
23124;DHT22;11731;48.592;8.858;2023-03-19T15:48:18;16.70;93.50
23124;DHT22;11731;48.592;8.858;2023-03-19T15:50:49;16.50;94.20
23124;DHT22;11731;48.592;8.858;2023-03-19T15:53:20;16.80;93.90
23124;DHT22;11731;48.592;8.858;2023-03-19T15:55:50;17.00;93.60
23124;DHT22;11731;48.592;8.858;2023-03-19T15:58:23;16.60;93.50
23124;DHT22;11731;48.592;8.858;2023-03-19T16:00:52;16.40;94.00
23124;DHT22;11731;48.592;8.858;2023-03-19T16:03:24;16.10;94.30
23124;DHT22;11731;48.592;8.858;2023-03-19T16:06:00;15.90;94.60
23124;DHT22;11731;48.592;8.858;2023-03-19T16:08:29;16.00;94.50
23124;DHT22;11731;48.592;8.858;2023-03-19T16:17:34;15.50;94.60
23124;DHT22;11731;48.592;8.858;2023-03-19T16:23:27;15.80;94.50
23124;DHT22;11731;48.592;8.858;2023-03-19T16:25:55;15.80;94.70
23124;DHT22;11731;48.592;8.858;2023-03-19T16:28:22;15.60;95.00
23124;DHT22;11731;48.592;8.858;2023-03-19T16:31:13;15.20;94.80
23124;DHT22;11731;48.592;8.858;2023-03-19T16:36:54;15.40;95.40
23124;DHT22;11731;48.592;8.858;2023-03-19T16:39:30;15.30;95.30
23124;DHT22;11731;48.592;8.858;2023-03-19T16:48:41;14.60;99.00